Time;durP1;ratioP1;P1;durP2;ratioP2;P2;SDS_P1;SDS_P2;PMS_P1;PMS_P2;Temp;Humidity;BMP_temperature;BMP_pressure;BME280_temperature;BME280_humidity;BME280_pressure;Samples;Min_cycle;Max_cycle;Signal;HPM_P1;HPM_P2
2022/11/27 00:01:45;;;;;;;;;17.50;16.25;;;;;;;;5102738;27;52279;-45
2022/11/27 00:04:30;;;;;;;;;25.75;19.75;;;;;;;;5104458;27;51200;-44
2022/11/27 00:07:14;;;;;;;;;19.50;16.25;;;;;;;;5116554;27;51705;-44
2022/11/27 00:09:59;;;;;;;;;16.00;15.00;;;;;;;;5122588;27;51458;-47
2022/11/27 00:12:43;;;;;;;;;12.75;11.00;;;;;;;;5122511;27;51138;-50
2022/11/27 00:15:28;;;;;;;;;20.75;16.00;;;;;;;;5122493;27;51443;-46
2022/11/27 00:18:12;;;;;;;;;21.50;18.00;;;;;;;;5122331;27;51055;-46
2022/11/27 00:21:01;;;;;;;;;19.00;17.25;;;;;;;;5122543;27;51120;-48
2022/11/27 00:23:46;;;;;;;;;21.75;16.50;;;;;;;;5121947;27;51309;-44
2022/11/27 00:26:30;;;;;;;;;20.50;13.50;;;;;;;;5122210;27;51126;-47
2022/11/27 00:29:15;;;;;;;;;22.50;19.25;;;;;;;;5122096;27;51177;-45
2022/11/27 00:31:59;;;;;;;;;20.75;19.00;;;;;;;;5122580;27;51048;-43
2022/11/27 00:34:44;;;;;;;;;21.75;19.25;;;;;;;;5122011;27;51396;-45
2022/11/27 00:37:28;;;;;;;;;20.25;17.25;;;;;;;;5122162;27;51071;-46
2022/11/27 00:40:13;;;;;;;;;22.25;19.00;;;;;;;;5122148;27;51443;-48
2022/11/27 00:42:57;;;;;;;;;19.25;18.50;;;;;;;;5121927;27;51169;-44
2022/11/27 00:45:42;;;;;;;;;17.75;16.00;;;;;;;;5122198;27;51153;-46
2022/11/27 00:48:26;;;;;;;;;22.50;17.00;;;;;;;;5121658;27;51439;-46
2022/11/27 00:51:15;;;;;;;;;23.00;20.50;;;;;;;;5121779;27;51049;-45
2022/11/27 00:53:59;;;;;;;;;19.50;15.00;;;;;;;;5121728;27;51011;-44
2022/11/27 00:56:43;;;;;;;;;20.50;17.50;;;;;;;;5121055;27;51098;-45
2022/11/27 00:59:28;;;;;;;;;33.00;21.00;;;;;;;;5121653;27;51095;-45
2022/11/27 01:02:12;;;;;;;;;22.25;18.75;;;;;;;;5121724;27;51208;-47
2022/11/27 01:04:57;;;;;;;;;21.50;19.50;;;;;;;;5121720;27;51417;-44
2022/11/27 01:07:41;;;;;;;;;24.50;19.00;;;;;;;;5121259;27;51100;-45
2022/11/27 01:10:25;;;;;;;;;20.00;15.00;;;;;;;;5121915;27;51171;-45
2022/11/27 01:13:10;;;;;;;;;20.00;15.25;;;;;;;;5102564;27;51355;-45
2022/11/27 01:15:59;;;;;;;;;16.50;16.00;;;;;;;;5121351;27;51164;-46
2022/11/27 01:18:44;;;;;;;;;18.50;17.00;;;;;;;;5121059;27;51127;-44
2022/11/27 01:21:31;;;;;;;;;17.00;14.25;;;;;;;;5121714;27;50983;-49
2022/11/27 01:24:16;;;;;;;;;20.50;16.25;;;;;;;;5121025;27;51104;-45
2022/11/27 01:27:00;;;;;;;;;15.25;14.00;;;;;;;;5121348;27;51065;-49
2022/11/27 01:29:44;;;;;;;;;23.50;15.75;;;;;;;;5120885;27;51526;-45
2022/11/27 01:32:29;;;;;;;;;17.50;14.00;;;;;;;;5121184;27;51036;-44
2022/11/27 01:35:13;;;;;;;;;19.25;15.75;;;;;;;;5121495;27;51005;-46
2022/11/27 01:37:58;;;;;;;;;14.00;11.00;;;;;;;;5120882;27;51334;-42
2022/11/27 01:40:42;;;;;;;;;18.00;16.75;;;;;;;;5121101;27;53157;-45
2022/11/27 01:43:41;;;;;;;;;24.25;17.75;;;;;;;;5120987;27;51159;-45
2022/11/27 01:46:45;;;;;;;;;18.75;15.75;;;;;;;;5121230;27;50989;-48
2022/11/27 01:49:32;;;;;;;;;19.75;16.75;;;;;;;;5121180;27;51149;-44
2022/11/27 01:52:36;;;;;;;;;21.00;16.00;;;;;;;;5121055;27;51140;-45
2022/11/27 01:55:20;;;;;;;;;19.50;18.75;;;;;;;;5121026;27;51098;-44
2022/11/27 01:58:12;;;;;;;;;21.75;16.00;;;;;;;;5120845;27;51135;-44
2022/11/27 02:00:57;;;;;;;;;24.50;18.25;;;;;;;;5120883;27;51045;-43
2022/11/27 02:03:41;;;;;;;;;21.00;18.50;;;;;;;;5120520;27;51338;-48
2022/11/27 02:06:25;;;;;;;;;17.00;15.00;;;;;;;;5121023;27;51018;-46
2022/11/27 02:09:10;;;;;;;;;16.50;15.00;;;;;;;;5124434;27;51141;-45
2022/11/27 02:12:00;;;;;;;;;13.00;11.00;;;;;;;;5125119;27;51082;-45
2022/11/27 02:15:03;;;;;;;;;18.00;15.75;;;;;;;;5124683;27;51066;-44
2022/11/27 02:17:52;;;;;;;;;18.25;16.25;;;;;;;;5124531;27;51004;-44
2022/11/27 02:21:03;;;;;;;;;23.50;18.00;;;;;;;;5124706;27;51144;-46
2022/11/27 02:23:47;;;;;;;;;22.00;16.00;;;;;;;;5106383;27;51463;-46
2022/11/27 02:26:49;;;;;;;;;19.00;18.00;;;;;;;;5104164;27;51166;-43
2022/11/27 02:29:34;;;;;;;;;18.75;15.00;;;;;;;;5103715;27;51605;-46
2022/11/27 02:32:18;;;;;;;;;18.50;15.00;;;;;;;;5121744;27;51089;-45
2022/11/27 02:35:06;;;;;;;;;19.25;15.25;;;;;;;;5124412;27;51113;-44
2022/11/27 02:37:57;;;;;;;;;17.75;15.75;;;;;;;;5124771;27;51013;-45
2022/11/27 02:40:45;;;;;;;;;19.25;15.25;;;;;;;;5124182;27;51015;-43
2022/11/27 02:43:35;;;;;;;;;19.00;16.25;;;;;;;;5124331;27;51180;-44
2022/11/27 02:46:19;;;;;;;;;15.00;13.75;;;;;;;;5124431;27;51416;-46
2022/11/27 02:49:06;;;;;;;;;19.75;14.50;;;;;;;;5123919;27;51172;-43
2022/11/27 02:51:53;;;;;;;;;19.75;16.25;;;;;;;;5124527;27;51106;-49
2022/11/27 02:54:39;;;;;;;;;18.25;13.00;;;;;;;;5121496;27;51433;-45
2022/11/27 02:57:24;;;;;;;;;18.00;15.50;;;;;;;;5120932;27;51473;-44
2022/11/27 03:00:09;;;;;;;;;18.50;13.50;;;;;;;;5123733;27;51206;-44
2022/11/27 03:02:58;;;;;;;;;16.50;13.50;;;;;;;;5124337;27;51029;-48
2022/11/27 03:05:44;;;;;;;;;20.00;14.00;;;;;;;;5123440;27;51547;-44
2022/11/27 03:08:32;;;;;;;;;20.25;17.50;;;;;;;;5123648;27;51095;-46
2022/11/27 03:11:16;;;;;;;;;18.75;16.00;;;;;;;;5123800;27;51384;-46
2022/11/27 03:14:02;;;;;;;;;17.00;12.75;;;;;;;;5123357;27;51112;-46
2022/11/27 03:16:56;;;;;;;;;16.00;15.00;;;;;;;;5124002;27;51166;-46
2022/11/27 03:20:06;;;;;;;;;17.50;13.25;;;;;;;;5122478;27;51094;-46
2022/11/27 03:22:54;;;;;;;;;17.75;12.50;;;;;;;;5093169;27;51315;-43
2022/11/27 03:25:38;;;;;;;;;20.00;15.00;;;;;;;;5123421;27;51040;-46
2022/11/27 03:28:23;;;;;;;;;17.75;14.75;;;;;;;;5103024;27;51240;-45
2022/11/27 03:31:07;;;;;;;;;15.50;14.50;;;;;;;;5121106;27;51184;-43
2022/11/27 03:33:53;;;;;;;;;20.00;15.50;;;;;;;;5123346;27;51093;-46
2022/11/27 03:36:37;;;;;;;;;13.75;11.75;;;;;;;;5123564;27;51089;-44
2022/11/27 03:39:22;;;;;;;;;18.00;14.75;;;;;;;;5123144;27;51191;-45
2022/11/27 03:42:14;;;;;;;;;22.75;17.50;;;;;;;;5114296;27;50978;-46
2022/11/27 03:45:02;;;;;;;;;11.00;9.75;;;;;;;;5118846;27;51359;-47
2022/11/27 03:47:55;;;;;;;;;14.00;13.00;;;;;;;;5102667;27;51646;-47
2022/11/27 03:50:49;;;;;;;;;19.25;15.00;;;;;;;;5102425;27;51093;-44
2022/11/27 03:53:43;;;;;;;;;18.00;14.75;;;;;;;;5106488;27;51078;-46
2022/11/27 03:56:35;;;;;;;;;23.50;15.75;;;;;;;;5102040;27;51395;-44
2022/11/27 03:59:22;;;;;;;;;16.25;15.00;;;;;;;;5121105;27;51134;-47
2022/11/27 04:02:11;;;;;;;;;19.25;16.00;;;;;;;;5122928;27;52100;-43
2022/11/27 04:04:55;;;;;;;;;18.25;14.00;;;;;;;;5107107;27;51200;-47
2022/11/27 04:07:40;;;;;;;;;17.00;13.75;;;;;;;;5102373;27;50976;-44
2022/11/27 04:10:24;;;;;;;;;18.25;16.00;;;;;;;;5101774;27;51306;-45
2022/11/27 04:13:08;;;;;;;;;17.50;14.00;;;;;;;;5119056;27;51119;-45
2022/11/27 04:15:53;;;;;;;;;16.25;13.50;;;;;;;;5122303;27;51074;-44
2022/11/27 04:18:37;;;;;;;;;15.25;15.25;;;;;;;;5122783;27;51402;-45
2022/11/27 04:21:22;;;;;;;;;15.00;15.00;;;;;;;;5122256;27;51595;-47
2022/11/27 04:24:06;;;;;;;;;18.25;15.50;;;;;;;;5122354;27;50957;-49
2022/11/27 04:26:51;;;;;;;;;16.75;14.75;;;;;;;;5122206;27;51510;-44
2022/11/27 04:29:38;;;;;;;;;18.25;14.25;;;;;;;;5121729;27;51107;-45
2022/11/27 04:32:22;;;;;;;;;17.00;14.50;;;;;;;;5122448;27;51172;-45
2022/11/27 04:35:07;;;;;;;;;17.25;13.75;;;;;;;;5121995;27;51555;-44
2022/11/27 04:37:51;;;;;;;;;17.75;15.50;;;;;;;;5122203;27;51476;-43
2022/11/27 04:40:35;;;;;;;;;15.00;14.00;;;;;;;;5121840;27;51121;-48
2022/11/27 04:43:20;;;;;;;;;17.25;16.25;;;;;;;;5089269;27;51078;-45
2022/11/27 04:46:05;;;;;;;;;16.75;14.25;;;;;;;;5112135;27;51529;-49
2022/11/27 04:48:49;;;;;;;;;19.00;16.00;;;;;;;;5121913;27;51195;-43
2022/11/27 04:51:33;;;;;;;;;22.25;17.75;;;;;;;;5121913;27;51526;-44
2022/11/27 04:54:18;;;;;;;;;17.50;15.00;;;;;;;;5121577;27;51033;-46
2022/11/27 04:57:03;;;;;;;;;20.25;16.50;;;;;;;;5122120;27;51098;-43
2022/11/27 04:59:47;;;;;;;;;22.50;15.75;;;;;;;;5121706;27;51261;-46
2022/11/27 05:02:31;;;;;;;;;20.00;14.00;;;;;;;;5121609;27;51402;-45
2022/11/27 05:05:16;;;;;;;;;15.00;13.50;;;;;;;;5121574;27;51247;-45
2022/11/27 05:08:00;;;;;;;;;18.25;15.00;;;;;;;;5121894;27;51040;-48
2022/11/27 05:10:45;;;;;;;;;18.25;16.00;;;;;;;;5121333;27;51459;-47
2022/11/27 05:13:30;;;;;;;;;19.50;15.25;;;;;;;;5121513;27;51200;-42
2022/11/27 05:16:13;;;;;;;;;20.25;15.00;;;;;;;;5121699;27;51106;-48
2022/11/27 05:18:58;;;;;;;;;20.50;14.25;;;;;;;;5121255;27;51003;-46
2022/11/27 05:21:42;;;;;;;;;20.25;14.00;;;;;;;;5121206;27;51011;-45
2022/11/27 05:24:27;;;;;;;;;16.50;13.75;;;;;;;;5121030;27;51060;-44
2022/11/27 05:27:12;;;;;;;;;22.25;19.00;;;;;;;;5121315;27;51148;-44
2022/11/27 05:29:56;;;;;;;;;17.50;15.00;;;;;;;;5120942;27;51135;-47
2022/11/27 05:32:40;;;;;;;;;19.75;16.50;;;;;;;;5121371;27;51120;-45
2022/11/27 05:35:25;;;;;;;;;22.25;16.75;;;;;;;;5120950;27;51192;-44
2022/11/27 05:38:09;;;;;;;;;16.00;14.50;;;;;;;;5121206;27;51166;-45
2022/11/27 05:40:54;;;;;;;;;26.25;20.25;;;;;;;;5121127;27;51111;-48
2022/11/27 05:43:38;;;;;;;;;26.50;16.00;;;;;;;;5120222;27;51181;-43
2022/11/27 05:46:22;;;;;;;;;25.75;25.75;;;;;;;;5121177;27;51163;-46
2022/11/27 05:49:07;;;;;;;;;35.75;30.00;;;;;;;;5121003;27;51182;-46
2022/11/27 05:51:51;;;;;;;;;38.25;31.75;;;;;;;;5121009;27;51721;-46
2022/11/27 05:54:36;;;;;;;;;41.75;33.00;;;;;;;;5120819;27;51175;-46
2022/11/27 05:57:20;;;;;;;;;38.00;30.75;;;;;;;;5121107;27;51161;-43
2022/11/27 06:00:05;;;;;;;;;43.50;35.25;;;;;;;;5120911;27;51473;-45
2022/11/27 06:31:13;;;;;;;;;47.75;36.25;;;;;;;;4294287;33;51031;-47
2022/11/27 06:33:57;;;;;;;;;44.25;37.25;;;;;;;;5053884;28;51071;-43
2022/11/27 06:36:41;;;;;;;;;47.75;38.00;;;;;;;;5053561;28;51058;-44
2022/11/27 06:39:26;;;;;;;;;49.50;38.50;;;;;;;;5053637;28;51199;-44
2022/11/27 06:42:10;;;;;;;;;48.25;39.00;;;;;;;;5053410;28;51667;-45
2022/11/27 06:44:55;;;;;;;;;53.25;41.25;;;;;;;;5053067;28;51191;-45
2022/11/27 06:47:40;;;;;;;;;50.00;41.25;;;;;;;;5053650;28;51072;-44
2022/11/27 06:50:25;;;;;;;;;50.50;38.25;;;;;;;;5053164;28;51611;-45
2022/11/27 06:53:09;;;;;;;;;51.25;39.75;;;;;;;;5053220;28;51774;-47
2022/11/27 06:55:54;;;;;;;;;50.75;40.00;;;;;;;;5053090;28;51120;-45
2022/11/27 06:58:38;;;;;;;;;53.75;42.50;;;;;;;;5053403;28;50992;-45
2022/11/27 07:01:24;;;;;;;;;53.25;42.25;;;;;;;;5052948;28;51132;-44
2022/11/27 07:04:12;;;;;;;;;54.50;42.50;;;;;;;;5053181;28;51142;-49
2022/11/27 07:06:57;;;;;;;;;52.50;41.00;;;;;;;;5052918;28;51143;-46
2022/11/27 07:09:41;;;;;;;;;49.00;41.50;;;;;;;;5052954;28;51098;-44
2022/11/27 07:12:26;;;;;;;;;44.50;37.50;;;;;;;;5053330;28;51047;-46
2022/11/27 07:15:10;;;;;;;;;45.25;36.00;;;;;;;;5052596;28;51490;-47
2022/11/27 07:17:55;;;;;;;;;52.25;39.50;;;;;;;;5053142;28;51065;-45
2022/11/27 07:20:39;;;;;;;;;45.75;37.50;;;;;;;;5052746;28;51155;-46
2022/11/27 07:23:24;;;;;;;;;46.50;37.50;;;;;;;;5052817;28;51138;-45
2022/11/27 07:26:21;;;;;;;;;37.75;30.75;;;;;;;;5052328;28;51390;-48
2022/11/27 07:29:05;;;;;;;;;32.00;28.50;;;;;;;;5048908;28;51097;-43
2022/11/27 07:31:50;;;;;;;;;37.25;31.00;;;;;;;;5020432;28;51545;-46
2022/11/27 07:34:35;;;;;;;;;28.75;23.75;;;;;;;;5018957;28;51053;-47
2022/11/27 07:37:19;;;;;;;;;27.75;25.25;;;;;;;;5019417;28;51156;-43
2022/11/27 07:40:04;;;;;;;;;35.00;29.75;;;;;;;;5018678;28;51326;-45
2022/11/27 07:42:49;;;;;;;;;47.00;37.00;;;;;;;;5018992;28;51116;-45
2022/11/27 07:45:33;;;;;;;;;35.25;31.00;;;;;;;;5018789;28;51065;-43
2022/11/27 07:48:17;;;;;;;;;39.00;29.75;;;;;;;;5019033;28;51061;-47
2022/11/27 07:51:04;;;;;;;;;24.00;22.25;;;;;;;;5018830;28;51577;-45
2022/11/27 07:53:52;;;;;;;;;23.75;21.00;;;;;;;;4995895;28;51075;-45
2022/11/27 07:56:36;;;;;;;;;33.00;25.00;;;;;;;;4998738;28;51418;-44
2022/11/27 07:59:20;;;;;;;;;25.50;22.00;;;;;;;;4998531;28;51186;-44
2022/11/27 08:02:05;;;;;;;;;25.75;21.50;;;;;;;;4999274;28;50969;-48
2022/11/27 08:04:49;;;;;;;;;22.75;21.25;;;;;;;;4998854;28;51166;-42
2022/11/27 08:07:33;;;;;;;;;21.75;17.75;;;;;;;;4999001;28;51457;-45
2022/11/27 08:10:18;;;;;;;;;21.75;18.50;;;;;;;;4998531;27;51130;-46
2022/11/27 08:13:02;;;;;;;;;19.25;17.50;;;;;;;;4999110;27;51165;-45
2022/11/27 08:15:47;;;;;;;;;18.25;15.25;;;;;;;;4998495;27;51476;-46
2022/11/27 08:18:31;;;;;;;;;16.00;16.00;;;;;;;;4998340;28;51092;-46
2022/11/27 08:21:15;;;;;;;;;18.50;18.25;;;;;;;;4998493;28;51061;-46
2022/11/27 08:24:00;;;;;;;;;17.00;15.00;;;;;;;;4998288;28;51144;-46
2022/11/27 08:26:44;;;;;;;;;21.00;17.25;;;;;;;;4998822;28;51182;-46
2022/11/27 08:29:29;;;;;;;;;17.75;17.75;;;;;;;;5004552;28;51479;-46
2022/11/27 08:32:13;;;;;;;;;18.75;16.75;;;;;;;;5018268;28;51494;-45
2022/11/27 08:34:58;;;;;;;;;22.25;16.50;;;;;;;;5018206;28;51049;-41
2022/11/27 08:37:42;;;;;;;;;18.00;15.00;;;;;;;;5018335;28;51155;-43
2022/11/27 08:40:26;;;;;;;;;19.00;16.25;;;;;;;;5018127;28;51049;-45
2022/11/27 08:43:11;;;;;;;;;17.75;15.00;;;;;;;;5017009;28;50967;-44
2022/11/27 08:45:55;;;;;;;;;21.75;17.50;;;;;;;;5018415;28;51305;-44
2022/11/27 08:48:40;;;;;;;;;10.75;8.75;;;;;;;;5017794;28;51096;-47
2022/11/27 08:51:25;;;;;;;;;12.00;10.00;;;;;;;;5018009;28;51149;-45
2022/11/27 08:54:09;;;;;;;;;12.00;9.00;;;;;;;;5017670;28;51073;-45
2022/11/27 08:56:54;;;;;;;;;13.00;11.00;;;;;;;;5018335;28;51546;-44
2022/11/27 08:59:38;;;;;;;;;17.00;11.50;;;;;;;;5015528;28;51159;-43
2022/11/27 09:02:23;;;;;;;;;14.75;10.25;;;;;;;;5018072;28;51218;-45
2022/11/27 09:05:07;;;;;;;;;18.00;14.75;;;;;;;;5017612;28;51438;-46
2022/11/27 09:07:52;;;;;;;;;14.00;12.75;;;;;;;;5002196;28;51085;-45
2022/11/27 09:10:36;;;;;;;;;20.25;16.00;;;;;;;;5017910;28;51189;-44
2022/11/27 09:13:20;;;;;;;;;12.75;10.25;;;;;;;;5017681;28;51134;-44
2022/11/27 09:16:06;;;;;;;;;14.00;12.75;;;;;;;;5017907;28;51081;-46
2022/11/27 09:18:51;;;;;;;;;16.75;13.25;;;;;;;;5017438;28;51175;-42
2022/11/27 09:21:37;;;;;;;;;13.75;12.00;;;;;;;;5002579;28;51405;-45
2022/11/27 09:24:21;;;;;;;;;13.00;12.25;;;;;;;;5017487;28;51051;-43
2022/11/27 09:27:06;;;;;;;;;14.75;12.25;;;;;;;;5017708;28;51057;-46
2022/11/27 09:29:51;;;;;;;;;13.50;11.75;;;;;;;;5017124;28;51140;-44
2022/11/27 09:32:35;;;;;;;;;12.75;12.75;;;;;;;;5017449;28;51175;-48
2022/11/27 09:35:19;;;;;;;;;15.25;13.50;;;;;;;;5017293;28;51138;-44
2022/11/27 09:38:04;;;;;;;;;13.25;10.50;;;;;;;;5017180;28;51171;-44
2022/11/27 09:40:50;;;;;;;;;18.75;12.50;;;;;;;;5017967;28;51266;-45
2022/11/27 09:43:40;;;;;;;;;17.00;10.75;;;;;;;;5025721;27;51559;-43
2022/11/27 09:46:34;;;;;;;;;12.50;12.50;;;;;;;;5016953;27;51293;-46
2022/11/27 09:49:24;;;;;;;;;19.25;14.75;;;;;;;;5017099;28;51269;-48
2022/11/27 09:52:21;;;;;;;;;15.25;12.00;;;;;;;;5017335;28;51021;-46
2022/11/27 09:55:09;;;;;;;;;15.00;13.50;;;;;;;;5016629;28;51110;-46
2022/11/27 09:58:05;;;;;;;;;15.00;11.75;;;;;;;;5017119;28;51128;-46
2022/11/27 10:00:49;;;;;;;;;15.50;14.00;;;;;;;;5017085;28;51376;-47
2022/11/27 10:03:34;;;;;;;;;17.25;12.25;;;;;;;;5016646;28;51180;-47
2022/11/27 10:06:31;;;;;;;;;10.75;9.50;;;;;;;;5017186;28;51014;-46
2022/11/27 10:09:18;;;;;;;;;17.25;13.00;;;;;;;;5016624;28;51381;-46
2022/11/27 10:12:02;;;;;;;;;16.75;16.00;;;;;;;;5017091;28;51457;-48
2022/11/27 10:15:05;;;;;;;;;14.00;11.50;;;;;;;;5016647;28;51082;-43
2022/11/27 10:17:56;;;;;;;;;14.50;10.25;;;;;;;;5016742;28;51186;-46
2022/11/27 10:20:53;;;;;;;;;15.00;12.75;;;;;;;;5016260;28;51555;-43
2022/11/27 10:23:44;;;;;;;;;13.50;13.00;;;;;;;;5016567;28;51086;-44
2022/11/27 10:26:33;;;;;;;;;17.25;13.75;;;;;;;;5016617;28;51344;-45
2022/11/27 10:29:17;;;;;;;;;18.25;14.75;;;;;;;;5016223;28;51130;-45
2022/11/27 10:32:28;;;;;;;;;11.25;10.00;;;;;;;;5017183;28;51143;-45
2022/11/27 10:35:15;;;;;;;;;17.75;12.25;;;;;;;;5016446;28;51222;-48
2022/11/27 10:38:06;;;;;;;;;13.50;11.00;;;;;;;;5016566;28;51350;-46
2022/11/27 10:41:00;;;;;;;;;9.50;6.75;;;;;;;;5016343;28;51074;-46
2022/11/27 10:43:46;;;;;;;;;12.00;10.50;;;;;;;;5016446;28;51179;-47
2022/11/27 10:46:33;;;;;;;;;18.75;11.00;;;;;;;;5016128;28;51171;-44
2022/11/27 10:49:17;;;;;;;;;16.00;12.00;;;;;;;;5016321;28;51219;-48
2022/11/27 10:52:01;;;;;;;;;16.25;13.25;;;;;;;;5016063;28;51478;-44
2022/11/27 10:54:50;;;;;;;;;15.50;11.25;;;;;;;;5013219;28;51213;-46
2022/11/27 10:57:34;;;;;;;;;16.75;11.75;;;;;;;;5010958;28;51316;-44
2022/11/27 11:00:22;;;;;;;;;10.25;10.25;;;;;;;;5015561;28;51396;-47
2022/11/27 11:03:15;;;;;;;;;9.00;7.25;;;;;;;;5015658;28;51387;-44
2022/11/27 11:06:01;;;;;;;;;16.50;13.25;;;;;;;;5016424;28;51081;-44
2022/11/27 11:08:46;;;;;;;;;10.25;9.25;;;;;;;;5019234;28;51060;-45
2022/11/27 11:36:20;;;;;;;;;9.00;9.00;;;;;;;;4262160;33;51130;-48
2022/11/27 11:39:04;;;;;;;;;13.75;8.75;;;;;;;;5033489;28;51206;-46
2022/11/27 11:41:48;;;;;;;;;15.50;14.00;;;;;;;;5032870;28;51336;-46
2022/11/27 11:44:37;;;;;;;;;14.25;11.00;;;;;;;;5032921;28;51103;-47
2022/11/27 11:47:23;;;;;;;;;12.25;10.75;;;;;;;;5032712;28;51479;-47
2022/11/27 11:50:12;;;;;;;;;16.25;11.75;;;;;;;;5032776;28;51077;-47
2022/11/27 11:53:15;;;;;;;;;15.50;13.25;;;;;;;;5033276;28;51018;-46
2022/11/27 11:56:21;;;;;;;;;10.25;9.25;;;;;;;;5025968;28;51167;-49
2022/11/27 11:59:21;;;;;;;;;13.75;11.00;;;;;;;;5009145;28;51171;-46
2022/11/27 12:02:24;;;;;;;;;14.00;9.50;;;;;;;;5012533;28;51092;-48
2022/11/27 12:05:24;;;;;;;;;15.50;11.25;;;;;;;;5012918;28;51099;-44
2022/11/27 12:08:24;;;;;;;;;13.75;11.00;;;;;;;;5012314;28;51170;-46
2022/11/27 12:11:08;;;;;;;;;16.25;11.75;;;;;;;;5012437;28;51165;-45
2022/11/27 12:14:13;;;;;;;;;14.25;12.75;;;;;;;;5012537;28;51427;-47
2022/11/27 12:17:01;;;;;;;;;16.00;13.00;;;;;;;;5012322;28;51175;-48
2022/11/27 12:20:04;;;;;;;;;15.00;9.25;;;;;;;;5021810;28;51170;-48
2022/11/27 12:23:05;;;;;;;;;12.00;9.00;;;;;;;;5032483;28;51190;-48
2022/11/27 12:26:05;;;;;;;;;11.25;10.00;;;;;;;;5032225;28;51160;-47
2022/11/27 12:29:08;;;;;;;;;10.75;10.75;;;;;;;;5031825;28;51169;-47
2022/11/27 12:32:02;;;;;;;;;13.50;13.50;;;;;;;;5032350;28;51016;-49
2022/11/27 12:34:57;;;;;;;;;11.50;8.50;;;;;;;;5031852;27;51011;-47
2022/11/27 12:38:04;;;;;;;;;17.00;12.25;;;;;;;;4993724;27;51147;-47
2022/11/27 12:40:48;;;;;;;;;21.25;17.50;;;;;;;;4998747;27;51743;-48
2022/11/27 12:43:36;;;;;;;;;19.50;14.50;;;;;;;;4998509;27;51073;-51
2022/11/27 12:46:44;;;;;;;;;15.50;11.50;;;;;;;;5007276;28;51127;-48
2022/11/27 12:49:31;;;;;;;;;13.50;11.25;;;;;;;;5018005;28;51094;-48
2022/11/27 12:52:20;;;;;;;;;19.00;16.50;;;;;;;;5012639;28;51050;-47
2022/11/27 12:55:11;;;;;;;;;22.00;17.50;;;;;;;;4998694;27;51052;-47
2022/11/27 12:58:04;;;;;;;;;13.00;11.25;;;;;;;;4998903;27;51082;-48
2022/11/27 13:00:51;;;;;;;;;13.75;13.75;;;;;;;;4998135;27;51095;-49
2022/11/27 13:03:41;;;;;;;;;20.50;16.75;;;;;;;;5015084;28;51096;-50
2022/11/27 13:06:27;;;;;;;;;10.75;9.50;;;;;;;;5018352;28;51054;-48
2022/11/27 13:09:22;;;;;;;;;20.00;18.00;;;;;;;;5018586;28;51156;-47
2022/11/27 13:12:08;;;;;;;;;21.00;15.50;;;;;;;;5018193;28;50978;-49
2022/11/27 13:14:59;;;;;;;;;17.75;16.00;;;;;;;;5017971;28;51107;-51
2022/11/27 13:17:44;;;;;;;;;18.75;16.00;;;;;;;;5018619;28;51491;-48
2022/11/27 13:20:39;;;;;;;;;20.25;18.25;;;;;;;;5017910;28;50989;-47
2022/11/27 13:23:23;;;;;;;;;21.50;15.50;;;;;;;;5018332;28;51143;-47
2022/11/27 13:26:30;;;;;;;;;24.00;20.75;;;;;;;;5017974;28;51469;-47
2022/11/27 13:29:23;;;;;;;;;15.50;13.00;;;;;;;;4995280;28;51149;-46
2022/11/27 13:32:14;;;;;;;;;19.50;16.25;;;;;;;;4993998;28;51173;-49
2022/11/27 13:35:01;;;;;;;;;18.50;18.50;;;;;;;;4997501;27;51172;-48
2022/11/27 13:37:48;;;;;;;;;24.50;20.25;;;;;;;;4997438;28;51034;-48
2022/11/27 13:40:37;;;;;;;;;15.00;13.50;;;;;;;;4996941;28;51097;-48
2022/11/27 13:43:22;;;;;;;;;13.25;12.00;;;;;;;;4995791;28;51040;-48
2022/11/27 13:46:21;;;;;;;;;18.25;14.25;;;;;;;;4997279;28;51176;-47
2022/11/27 13:49:05;;;;;;;;;16.75;13.75;;;;;;;;4995927;28;51007;-48
2022/11/27 13:51:50;;;;;;;;;12.75;12.75;;;;;;;;4996563;28;51119;-46
2022/11/27 13:54:34;;;;;;;;;13.25;10.25;;;;;;;;4997186;28;51127;-48
2022/11/27 13:57:20;;;;;;;;;17.25;15.75;;;;;;;;4995977;28;51465;-50
2022/11/27 14:00:06;;;;;;;;;15.00;12.75;;;;;;;;4997140;28;51184;-46
2022/11/27 14:02:51;;;;;;;;;18.75;13.25;;;;;;;;4997692;28;51131;-46
2022/11/27 14:05:38;;;;;;;;;17.25;11.25;;;;;;;;4996654;28;51565;-46
2022/11/27 14:08:33;;;;;;;;;11.50;8.25;;;;;;;;4995484;28;51005;-46
2022/11/27 14:11:27;;;;;;;;;15.50;12.75;;;;;;;;4992582;28;51252;-47
2022/11/27 14:14:22;;;;;;;;;13.50;10.00;;;;;;;;4994805;28;51105;-49
2022/11/27 14:17:22;;;;;;;;;18.50;12.50;;;;;;;;4993460;28;51117;-46
2022/11/27 14:20:12;;;;;;;;;14.25;12.25;;;;;;;;4993861;28;51226;-46
2022/11/27 14:22:58;;;;;;;;;19.25;15.25;;;;;;;;4994828;28;51123;-46
2022/11/27 14:25:42;;;;;;;;;20.75;13.50;;;;;;;;4993924;28;51105;-46
2022/11/27 14:28:27;;;;;;;;;17.50;14.75;;;;;;;;4996006;28;51118;-46
2022/11/27 14:31:32;;;;;;;;;15.25;14.50;;;;;;;;4996151;28;51059;-48
2022/11/27 14:34:32;;;;;;;;;16.00;12.25;;;;;;;;4996789;28;51620;-48
2022/11/27 14:37:21;;;;;;;;;9.25;9.25;;;;;;;;4996351;28;51025;-46
2022/11/27 14:40:19;;;;;;;;;12.50;12.50;;;;;;;;5000735;27;51137;-48
2022/11/27 14:43:13;;;;;;;;;15.25;12.25;;;;;;;;4995177;28;51467;-46
2022/11/27 14:46:00;;;;;;;;;17.50;14.50;;;;;;;;4994060;27;51064;-48
2022/11/27 14:48:44;;;;;;;;;12.25;10.00;;;;;;;;4996828;27;51456;-46
2022/11/27 14:51:33;;;;;;;;;13.50;10.25;;;;;;;;4995718;28;51239;-46
2022/11/27 14:54:22;;;;;;;;;16.25;12.00;;;;;;;;4996658;27;51120;-46
2022/11/27 14:57:10;;;;;;;;;10.75;10.75;;;;;;;;4994877;28;51186;-48
2022/11/27 15:00:03;;;;;;;;;20.25;12.25;;;;;;;;4995883;27;51314;-46
2022/11/27 15:02:48;;;;;;;;;14.00;11.75;;;;;;;;4994614;27;51033;-45
2022/11/27 15:05:34;;;;;;;;;14.00;10.25;;;;;;;;4995494;28;51079;-46
2022/11/27 15:08:19;;;;;;;;;12.75;11.50;;;;;;;;4992971;28;52153;-47
2022/11/27 15:11:04;;;;;;;;;17.50;13.25;;;;;;;;4992373;28;51066;-46
2022/11/27 15:13:52;;;;;;;;;10.50;10.50;;;;;;;;4993741;28;51701;-47
2022/11/27 15:16:38;;;;;;;;;13.25;10.50;;;;;;;;4992340;28;51085;-46
2022/11/27 15:19:30;;;;;;;;;14.50;13.00;;;;;;;;4993376;28;51164;-47
2022/11/27 15:22:18;;;;;;;;;11.75;11.75;;;;;;;;4992992;28;51243;-47
2022/11/27 15:25:06;;;;;;;;;14.25;12.25;;;;;;;;4992498;28;51565;-45
2022/11/27 15:27:51;;;;;;;;;14.00;12.50;;;;;;;;4991105;28;51456;-47
2022/11/27 15:30:42;;;;;;;;;13.00;9.75;;;;;;;;4994061;28;51623;-48
2022/11/27 15:33:27;;;;;;;;;14.25;11.50;;;;;;;;4995859;28;51113;-47
2022/11/27 15:36:16;;;;;;;;;17.50;13.50;;;;;;;;4995373;28;51165;-46
2022/11/27 15:39:13;;;;;;;;;11.50;10.25;;;;;;;;4995227;28;51414;-46
2022/11/27 15:41:58;;;;;;;;;13.25;11.25;;;;;;;;4994377;28;51198;-47
2022/11/27 15:44:44;;;;;;;;;21.50;15.25;;;;;;;;4996514;28;51110;-47
2022/11/27 15:47:30;;;;;;;;;13.50;11.00;;;;;;;;4981324;28;51390;-47
2022/11/27 15:50:15;;;;;;;;;20.00;15.25;;;;;;;;4996167;28;51081;-46
2022/11/27 15:52:59;;;;;;;;;25.25;24.25;;;;;;;;4996071;28;51114;-46
2022/11/27 15:55:43;;;;;;;;;27.50;21.75;;;;;;;;4996465;28;51095;-48
2022/11/27 15:58:28;;;;;;;;;37.00;30.50;;;;;;;;4996022;28;51078;-46
2022/11/27 16:01:12;;;;;;;;;21.50;19.00;;;;;;;;4995589;28;51131;-46
2022/11/27 16:03:57;;;;;;;;;20.75;19.75;;;;;;;;4996224;28;51263;-47
2022/11/27 16:06:41;;;;;;;;;20.00;16.50;;;;;;;;4995912;28;51132;-48
2022/11/27 16:09:25;;;;;;;;;16.25;12.00;;;;;;;;4996142;28;51199;-46
2022/11/27 16:12:10;;;;;;;;;18.50;16.25;;;;;;;;4997125;28;51171;-46
2022/11/27 16:14:54;;;;;;;;;24.00;19.00;;;;;;;;4993950;28;51448;-46
2022/11/27 16:17:39;;;;;;;;;28.25;24.75;;;;;;;;4999496;28;51569;-46
2022/11/27 16:20:24;;;;;;;;;19.00;15.75;;;;;;;;4999580;28;51062;-47
2022/11/27 16:23:08;;;;;;;;;18.50;12.75;;;;;;;;4999348;28;51470;-46
2022/11/27 16:25:53;;;;;;;;;22.00;16.75;;;;;;;;5018945;28;51114;-47
2022/11/27 16:28:37;;;;;;;;;19.00;16.75;;;;;;;;5018811;28;51132;-49
2022/11/27 16:31:22;;;;;;;;;16.50;15.50;;;;;;;;5019246;28;51111;-46
2022/11/27 16:34:06;;;;;;;;;16.50;14.75;;;;;;;;5019026;27;51036;-49
2022/11/27 16:36:51;;;;;;;;;16.75;13.50;;;;;;;;5012200;28;51176;-45
2022/11/27 16:39:35;;;;;;;;;14.00;14.00;;;;;;;;4996369;27;51335;-47
2022/11/27 16:42:20;;;;;;;;;19.50;16.25;;;;;;;;4997562;28;51119;-46
2022/11/27 16:45:04;;;;;;;;;16.00;15.50;;;;;;;;4999148;28;51115;-47
2022/11/27 16:47:48;;;;;;;;;16.25;13.00;;;;;;;;5005994;28;51088;-48
2022/11/27 16:50:33;;;;;;;;;22.75;20.25;;;;;;;;5018734;28;51112;-49
2022/11/27 16:53:17;;;;;;;;;13.00;13.00;;;;;;;;5018813;28;51151;-47
2022/11/27 16:56:01;;;;;;;;;20.25;15.50;;;;;;;;5006883;28;51273;-50
2022/11/27 16:58:46;;;;;;;;;23.00;21.25;;;;;;;;5012138;28;51064;-48
2022/11/27 17:01:32;;;;;;;;;12.50;9.25;;;;;;;;5018390;28;51078;-48
2022/11/27 17:04:18;;;;;;;;;19.25;13.25;;;;;;;;5018658;28;51096;-47
2022/11/27 17:07:03;;;;;;;;;18.25;15.50;;;;;;;;5017965;28;51202;-48
2022/11/27 17:09:48;;;;;;;;;17.00;13.75;;;;;;;;5018584;28;51087;-47